Time;durP1;ratioP1;P1;durP2;ratioP2;P2;SDS_P1;SDS_P2;PMS_P1;PMS_P2;Temp;Humidity;BMP_temperature;BMP_pressure;BME280_temperature;BME280_humidity;BME280_pressure;Samples;Min_cycle;Max_cycle;Signal;HPM_P1;HPM_P2
2021/04/05 00:00:16;;;;;;;5.85;0.80;;;;;;;6.84;100.00;99764.97;5033066;28;20056;-78
2021/04/05 00:03:19;;;;;;;0.85;0.80;;;;;;;6.86;100.00;99773.59;5033933;28;20505;-77
2021/04/05 00:06:23;;;;;;;5.20;1.20;;;;;;;6.88;100.00;99765.59;5033684;28;20061;-77
2021/04/05 00:09:27;;;;;;;7.82;1.17;;;;;;;6.91;100.00;99761.16;5036247;28;20060;-79
2021/04/05 00:12:31;;;;;;;0.75;0.75;;;;;;;6.90;100.00;99771.47;5042422;28;20056;-78
2021/04/05 00:15:34;;;;;;;3.20;0.88;;;;;;;6.93;100.00;99767.03;5037059;28;20068;-78
2021/04/05 00:18:37;;;;;;;4.22;0.98;;;;;;;6.93;100.00;99762.22;5033745;28;20056;-78
2021/04/05 00:21:40;;;;;;;0.45;0.45;;;;;;;6.92;100.00;99757.94;5033629;28;20513;-78
2021/04/05 00:24:44;;;;;;;5.45;0.85;;;;;;;6.92;100.00;99749.63;5033755;28;20064;-78
2021/04/05 00:27:48;;;;;;;2.55;1.27;;;;;;;6.92;100.00;99755.16;5034026;28;20048;-77
2021/04/05 00:30:53;;;;;;;2.35;0.30;;;;;;;6.93;100.00;99756.69;5026684;28;20049;-77
2021/04/05 00:33:56;;;;;;;0.45;0.45;;;;;;;6.93;100.00;99750.41;5033440;28;20064;-77
2021/04/05 00:37:00;;;;;;;1.88;1.20;;;;;;;6.94;100.00;99732.56;5033335;28;20504;-78
2021/04/05 00:49:24;;;;;;;0.70;0.70;;;;;;;6.63;100.00;99743.59;4994313;28;20053;-77
2021/04/05 00:52:28;;;;;;;2.25;1.27;;;;;;;6.54;100.00;99729.72;4993827;28;20073;-78
2021/04/05 00:55:32;;;;;;;0.63;0.63;;;;;;;6.47;100.00;99725.22;4993531;28;20053;-78
2021/04/05 00:58:36;;;;;;;6.05;0.90;;;;;;;6.43;100.00;99713.50;4994360;28;20383;-78
2021/04/05 01:01:39;;;;;;;0.70;0.70;;;;;;;6.40;100.00;99722.72;4987626;28;20053;-78
2021/04/05 01:04:42;;;;;;;5.15;0.77;;;;;;;6.34;100.00;99698.84;4973844;28;20050;-77
2021/04/05 01:07:46;;;;;;;0.32;0.32;;;;;;;6.30;100.00;99682.41;4991087;28;20049;-78
2021/04/05 01:10:50;;;;;;;6.38;1.48;;;;;;;6.28;100.00;99684.06;4993915;28;20054;-77
2021/04/05 01:13:55;;;;;;;3.97;1.13;;;;;;;6.27;100.00;99688.03;4994589;28;20054;-78
2021/04/05 01:16:58;;;;;;;3.15;1.23;;;;;;;6.25;100.00;99674.69;4994179;28;20054;-78
2021/04/05 01:20:07;;;;;;;6.55;2.80;;;;;;;6.24;100.00;99677.91;4994138;28;20049;-78
2021/04/05 01:23:11;;;;;;;1.55;1.30;;;;;;;6.28;100.00;99717.25;4993940;28;20049;-78
2021/04/05 01:26:15;;;;;;;2.10;0.90;;;;;;;6.25;100.00;99743.03;4993337;28;20041;-79
2021/04/05 01:29:18;;;;;;;6.05;0.68;;;;;;;6.09;100.00;99755.81;4993421;28;20057;-79
2021/04/05 01:32:22;;;;;;;2.95;1.00;;;;;;;5.84;100.00;99766.16;4993161;28;20430;-80
2021/04/05 01:35:25;;;;;;;2.22;0.98;;;;;;;5.67;100.00;99753.69;4992955;28;20053;-80
2021/04/05 01:38:56;;;;;;;3.22;0.85;;;;;;;5.52;100.00;99750.63;4993041;28;20117;-80
2021/04/05 01:42:00;;;;;;;2.40;1.08;;;;;;;5.39;100.00;99736.03;4993279;28;20050;-79
2021/04/05 01:45:04;;;;;;;1.35;0.65;;;;;;;5.28;100.00;99719.78;4993131;28;20046;-79
2021/04/05 01:48:08;;;;;;;8.68;1.13;;;;;;;5.17;100.00;99735.94;5021699;28;20524;-79
2021/04/05 01:51:20;;;;;;;9.60;1.08;;;;;;;5.08;100.00;99740.56;5032365;28;20057;-79
2021/04/05 01:54:23;;;;;;;3.33;1.52;;;;;;;4.99;100.00;99724.66;5032128;28;20389;-79
2021/04/05 01:57:28;;;;;;;6.80;2.22;;;;;;;4.94;100.00;99729.94;5032217;28;20072;-79
2021/04/05 02:00:37;;;;;;;4.60;2.75;;;;;;;4.85;100.00;99741.63;5032497;28;20052;-80
2021/04/05 02:03:41;;;;;;;1.30;1.23;;;;;;;4.79;100.00;99765.47;5032062;28;20056;-80
2021/04/05 02:06:44;;;;;;;6.82;2.55;;;;;;;4.68;100.00;99764.25;5032148;28;20052;-79
2021/04/05 02:09:48;;;;;;;1.13;1.10;;;;;;;4.58;100.00;99769.63;5035739;28;20056;-79
2021/04/05 02:12:53;;;;;;;14.30;2.33;;;;;;;4.52;100.00;99782.41;5035718;28;20068;-79
2021/04/05 02:15:57;;;;;;;2.60;2.40;;;;;;;4.44;100.00;99781.03;5035521;28;20045;-80
2021/04/05 02:19:01;;;;;;;2.50;1.55;;;;;;;4.38;100.00;99763.47;5035865;28;20053;-79
2021/04/05 02:22:05;;;;;;;1.10;1.10;;;;;;;4.35;100.00;99764.34;5035753;28;20056;-80
2021/04/05 02:25:14;;;;;;;2.17;1.90;;;;;;;4.27;100.00;99751.19;5035435;28;20057;-79
2021/04/05 02:28:18;;;;;;;9.85;2.25;;;;;;;4.18;100.00;99754.56;5034779;28;20056;-79
2021/04/05 02:31:23;;;;;;;1.30;1.20;;;;;;;4.11;100.00;99770.53;5035481;28;20398;-78
2021/04/05 02:34:27;;;;;;;1.88;1.77;;;;;;;4.05;100.00;99770.28;5034447;28;20048;-78
2021/04/05 02:37:31;;;;;;;6.65;1.77;;;;;;;3.99;100.00;99771.22;5035303;28;20044;-79
2021/04/05 02:40:34;;;;;;;3.83;2.30;;;;;;;3.96;100.00;99775.66;5035222;28;20068;-79
2021/04/05 02:43:40;;;;;;;1.98;1.35;;;;;;;3.92;100.00;99774.94;5034983;28;20048;-80
2021/04/05 02:46:47;;;;;;;1.45;1.30;;;;;;;3.86;100.00;99787.69;5034533;28;20559;-79
2021/04/05 02:49:51;;;;;;;1.75;1.65;;;;;;;3.81;100.00;99793.75;5035393;28;20064;-79
2021/04/05 02:52:58;;;;;;;1.27;1.27;;;;;;;3.81;100.00;99802.75;5034891;28;20400;-79
2021/04/05 02:56:04;;;;;;;3.50;2.15;;;;;;;3.80;100.00;99800.44;5034757;28;20493;-79
2021/04/05 02:59:09;;;;;;;11.90;1.80;;;;;;;3.80;100.00;99805.94;5034267;28;20104;-79
2021/04/05 03:06:52;;;;;;;9.88;1.52;;;;;;;3.76;100.00;99764.72;5035938;28;20076;-79
2021/04/05 03:09:56;;;;;;;0.90;0.90;;;;;;;3.77;100.00;99787.50;5035007;28;20049;-79
2021/04/05 03:12:59;;;;;;;9.85;1.42;;;;;;;3.76;100.00;99774.97;5034428;28;20056;-78
2021/04/05 03:16:11;;;;;;;1.23;1.08;;;;;;;3.76;100.00;99773.00;5034391;28;20053;-78
2021/04/05 03:19:15;;;;;;;0.85;0.85;;;;;;;3.74;100.00;99769.13;5033771;28;20060;-78
2021/04/05 03:22:20;;;;;;;4.88;1.40;;;;;;;3.74;100.00;99774.63;5034585;28;20052;-78
2021/04/05 03:25:24;;;;;;;1.08;1.08;;;;;;;3.70;100.00;99784.97;5034359;28;20398;-78
2021/04/05 03:28:27;;;;;;;0.75;0.75;;;;;;;3.69;100.00;99777.88;5034305;28;20136;-78
2021/04/05 03:31:36;;;;;;;1.10;1.10;;;;;;;3.66;100.00;99776.78;5034161;28;20389;-78
2021/04/05 03:34:44;;;;;;;5.68;1.92;;;;;;;3.65;100.00;99772.47;5034168;28;20056;-77
2021/04/05 03:37:48;;;;;;;1.30;0.55;;;;;;;3.63;100.00;99780.41;5034067;28;20044;-77
2021/04/05 03:40:55;;;;;;;14.07;2.17;;;;;;;3.60;100.00;99785.97;5033406;28;20378;-77
2021/04/05 03:44:10;;;;;;;1.02;1.02;;;;;;;3.50;100.00;99809.81;5034039;28;20068;-77
2021/04/05 03:47:38;;;;;;;6.95;1.58;;;;;;;3.37;100.00;99810.91;5033854;28;20378;-78
2021/04/05 03:51:20;;;;;;;1.02;1.02;;;;;;;3.26;100.00;99833.16;5034056;28;20512;-77
2021/04/05 03:54:25;;;;;;;;;;;;;;;3.18;100.00;99842.00;5034184;28;20382;-77
2021/04/05 03:57:33;;;;;;;1.15;0.75;;;;;;;3.10;100.00;99837.84;5033824;28;19916;-77
2021/04/05 04:00:39;;;;;;;0.77;0.77;;;;;;;2.96;100.00;99833.41;5033621;28;20045;-77
2021/04/05 04:03:52;;;;;;;1.10;1.10;;;;;;;2.93;100.00;99837.00;5032925;28;20052;-77
2021/04/05 04:10:11;;;;;;;0.47;0.47;;;;;;;2.99;100.00;99830.59;5033709;28;20068;-77
2021/04/05 04:31:55;;;;;;;1.88;1.05;;;;;;;2.60;100.00;99808.59;5032922;28;20381;-76
2021/04/05 04:35:00;;;;;;;2.85;2.10;;;;;;;2.59;100.00;99796.06;5033157;28;20056;-77
2021/04/05 04:38:04;;;;;;;0.98;0.90;;;;;;;2.57;100.00;99809.47;5032927;28;20608;-76
2021/04/05 04:41:08;;;;;;;0.90;0.90;;;;;;;2.50;100.00;99815.09;5032833;28;20052;-77
2021/04/05 04:44:12;;;;;;;1.23;1.23;;;;;;;2.43;100.00;99822.69;5033101;28;20063;-76
2021/04/05 04:47:16;;;;;;;1.00;1.00;;;;;;;2.39;100.00;99819.22;5032727;28;20045;-77
2021/04/05 04:50:21;;;;;;;3.90;1.42;;;;;;;2.33;100.00;99827.19;5033068;28;20048;-77
2021/04/05 04:53:24;;;;;;;13.90;1.00;;;;;;;2.29;100.00;99842.97;5032604;28;20393;-76
2021/04/05 04:56:28;;;;;;;1.10;0.88;;;;;;;2.26;100.00;99827.31;5032602;28;20052;-77
2021/04/05 04:59:33;;;;;;;1.17;1.13;;;;;;;2.19;100.00;99830.19;5032790;28;20068;-77
2021/04/05 05:02:39;;;;;;;0.93;0.93;;;;;;;2.17;100.00;99836.09;5033409;28;20052;-76
2021/04/05 05:05:44;;;;;;;1.08;1.08;;;;;;;2.13;100.00;99845.59;5033177;28;20123;-77
2021/04/05 05:08:47;;;;;;;1.13;1.13;;;;;;;2.16;100.00;99822.78;5032376;28;20052;-77
2021/04/05 05:11:52;;;;;;;5.85;1.30;;;;;;;2.28;100.00;99830.41;5032705;28;20105;-77
2021/04/05 05:14:56;;;;;;;3.60;0.95;;;;;;;2.40;100.00;99838.06;5032659;28;20378;-77
2021/04/05 05:17:59;;;;;;;0.70;0.70;;;;;;;2.48;100.00;99844.19;5031956;28;20373;-76
2021/04/05 05:21:08;;;;;;;0.90;0.90;;;;;;;2.50;100.00;99853.56;5032754;28;20056;-77
2021/04/05 05:24:19;;;;;;;0.98;0.95;;;;;;;2.52;100.00;99845.69;5032525;28;20049;-77
2021/04/05 05:27:23;;;;;;;0.55;0.55;;;;;;;2.55;100.00;99846.81;5032352;28;20052;-77
2021/04/05 05:30:28;;;;;;;1.10;1.10;;;;;;;2.59;100.00;99850.25;5032394;28;20505;-77
2021/04/05 05:33:34;;;;;;;0.80;0.80;;;;;;;2.64;100.00;99853.28;5032238;28;20052;-77
2021/04/05 05:36:38;;;;;;;0.85;0.85;;;;;;;2.68;100.00;99853.25;5032456;28;20061;-77
2021/04/05 05:39:42;;;;;;;1.15;1.15;;;;;;;2.67;100.00;99852.47;5032418;28;20052;-77
2021/04/05 05:42:52;;;;;;;0.90;0.90;;;;;;;2.70;100.00;99851.63;5033207;28;20048;-78
2021/04/05 05:45:55;;;;;;;1.27;1.20;;;;;;;2.71;100.00;99858.66;5036169;28;20049;-77
2021/04/05 05:49:31;;;;;;;0.95;0.95;;;;;;;2.72;100.00;99860.22;5036111;28;20055;-77
2021/04/05 05:53:03;;;;;;;1.95;1.00;;;;;;;2.77;100.00;99856.22;5035828;28;20060;-77
2021/04/05 05:56:32;;;;;;;1.88;1.23;;;;;;;2.79;100.00;99871.09;5035911;28;20061;-77
2021/04/05 06:00:01;;;;;;;0.57;0.57;;;;;;;2.85;100.00;99858.41;5035988;28;20056;-77
2021/04/05 06:04:27;;;;;;;0.80;0.80;;;;;;;2.89;100.00;99870.09;5035852;28;20048;-76
2021/04/05 06:07:53;;;;;;;2.28;1.20;;;;;;;2.94;100.00;99872.34;5035712;28;20497;-77
2021/04/05 06:11:16;;;;;;;0.98;0.98;;;;;;;2.96;100.00;99883.72;5036023;28;20056;-76
2021/04/05 06:14:44;;;;;;;0.80;0.70;;;;;;;3.04;100.00;99884.34;5035664;28;20064;-76
2021/04/05 06:17:55;;;;;;;0.85;0.85;;;;;;;3.08;100.00;99888.56;5035450;28;20048;-77
2021/04/05 06:21:15;;;;;;;0.93;0.93;;;;;;;3.16;100.00;99882.91;5035614;28;20049;-77
2021/04/05 06:24:53;;;;;;;3.55;1.05;;;;;;;3.08;100.00;99905.06;5035460;28;20052;-77
2021/04/05 06:28:18;;;;;;;2.20;1.20;;;;;;;2.96;100.00;99900.22;5035265;28;20048;-77
2021/04/05 06:31:49;;;;;;;1.10;1.10;;;;;;;2.86;100.00;99897.66;5035255;28;20068;-77
2021/04/05 06:35:33;;;;;;;5.75;2.42;;;;;;;2.78;100.00;99910.78;5035652;28;20056;-77
2021/04/05 06:38:49;;;;;;;0.93;0.93;;;;;;;2.71;100.00;99923.84;5036536;28;20049;-77
2021/04/05 06:41:56;;;;;;;0.68;0.68;;;;;;;2.65;100.00;99926.34;5036489;28;20060;-76
2021/04/05 06:45:14;;;;;;;4.38;1.88;;;;;;;2.59;100.00;99938.22;5036283;28;20064;-78
2021/04/05 06:48:30;;;;;;;1.13;1.13;;;;;;;2.51;100.00;99940.34;5034996;28;20056;-76
2021/04/05 06:52:05;;;;;;;1.00;1.00;;;;;;;2.52;100.00;99947.38;5034962;28;20417;-77
2021/04/05 06:55:13;;;;;;;1.08;1.08;;;;;;;2.55;100.00;99949.28;5032880;28;20052;-76
2021/04/05 06:58:26;;;;;;;1.00;1.00;;;;;;;2.66;100.00;99960.09;5034872;28;20048;-76
2021/04/05 07:02:16;;;;;;;1.25;1.25;;;;;;;2.67;100.00;99956.94;5036609;28;20389;-77
2021/04/05 07:05:44;;;;;;;2.13;1.98;;;;;;;2.74;100.00;99976.06;5035076;28;20056;-75
2021/04/05 07:09:08;;;;;;;1.48;1.40;;;;;;;2.73;100.00;99999.22;5017523;28;20056;-76
2021/04/05 07:26:01;;;;;;;3.47;1.85;;;;;;;2.54;100.00;100085.16;5033819;28;20483;-76
2021/04/05 07:29:24;;;;;;;0.82;0.80;;;;;;;2.20;100.00;100081.75;5033112;28;20183;-77
2021/04/05 07:33:01;;;;;;;0.68;0.68;;;;;;;1.97;100.00;100076.16;5033357;28;20052;-76
2021/04/05 07:36:21;;;;;;;0.73;0.73;;;;;;;1.77;100.00;100084.25;5032971;28;20064;-76
2021/04/05 07:39:43;;;;;;;5.38;0.95;;;;;;;1.61;100.00;100077.75;5033536;28;20052;-76
2021/04/05 07:43:04;;;;;;;0.52;0.52;;;;;;;1.58;100.00;100093.13;5033592;28;20045;-76
2021/04/05 07:46:09;;;;;;;1.10;1.10;;;;;;;1.59;100.00;100093.88;5033975;28;20056;-76
2021/04/05 07:49:31;;;;;;;0.93;0.93;;;;;;;1.62;100.00;100087.56;5033928;28;20049;-76
2021/04/05 07:53:04;;;;;;;1.10;1.10;;;;;;;1.57;100.00;100093.50;5034124;28;20056;-75
2021/04/05 07:56:17;;;;;;;1.05;1.05;;;;;;;1.54;100.00;100095.88;5034276;28;20056;-76
2021/04/05 07:59:46;;;;;;;1.15;1.10;;;;;;;1.50;100.00;100113.56;5034306;28;20547;-75
2021/04/05 08:03:14;;;;;;;1.10;1.10;;;;;;;1.60;100.00;100114.66;5033903;28;20406;-75
2021/04/05 08:06:23;;;;;;;1.73;1.63;;;;;;;1.67;100.00;100126.31;5033078;28;20052;-76
2021/04/05 08:09:36;;;;;;;6.80;1.02;;;;;;;1.70;100.00;100138.44;5033534;28;20078;-76
2021/04/05 08:12:54;;;;;;;1.52;1.42;;;;;;;1.67;100.00;100144.78;5033488;28;20068;-77
2021/04/05 08:16:09;;;;;;;1.38;1.05;;;;;;;1.61;100.00;100146.38;5033274;28;20044;-76
2021/04/05 08:19:30;;;;;;;1.17;1.08;;;;;;;1.56;100.00;100149.59;5032657;28;20072;-76
2021/04/05 08:22:56;;;;;;;1.27;1.27;;;;;;;1.47;100.00;100145.34;5033458;28;20464;-76
2021/04/05 08:26:25;;;;;;;0.85;0.85;;;;;;;1.35;100.00;100151.34;5032663;28;20056;-77
2021/04/05 08:30:01;;;;;;;0.70;0.70;;;;;;;1.27;100.00;100151.81;5013508;28;20485;-76
2021/04/05 08:33:04;;;;;;;2.05;1.17;;;;;;;1.20;100.00;100157.34;5004395;28;20052;-76
2021/04/05 08:36:25;;;;;;;1.08;1.08;;;;;;;1.15;100.00;100155.81;5013215;28;20057;-76
2021/04/05 08:39:59;;;;;;;1.27;1.27;;;;;;;1.22;100.00;100157.72;5013200;28;20056;-75
2021/04/05 08:43:32;;;;;;;8.88;1.50;;;;;;;1.46;100.00;100160.25;5013006;28;20061;-76
2021/04/05 08:46:37;;;;;;;1.10;1.10;;;;;;;1.91;100.00;100179.38;5013192;28;20053;-76
2021/04/05 08:49:45;;;;;;;0.75;0.75;;;;;;;2.12;100.00;100168.94;5013070;28;20152;-78
2021/04/05 08:52:53;;;;;;;0.98;0.98;;;;;;;2.25;100.00;100189.19;5013014;28;20489;-76
2021/04/05 08:55:59;;;;;;;0.82;0.82;;;;;;;2.12;100.00;100187.41;5013124;28;20046;-76
2021/04/05 08:59:07;;;;;;;0.90;0.90;;;;;;;2.12;100.00;100198.41;5013081;28;20053;-77
2021/04/05 09:02:36;;;;;;;1.25;1.25;;;;;;;2.25;100.00;100193.94;5013198;28;20061;-76
2021/04/05 09:05:45;;;;;;;1.40;0.90;;;;;;;2.20;100.00;100210.84;5013215;28;20056;-76
2021/04/05 09:08:50;;;;;;;0.80;0.80;;;;;;;2.25;100.00;100204.91;5012948;28;20049;-76
2021/04/05 09:11:55;;;;;;;1.00;1.00;;;;;;;2.36;100.00;100213.78;5012782;28;20049;-77
2021/04/05 09:15:38;;;;;;;4.15;1.90;;;;;;;2.47;100.00;100214.44;5012599;28;20072;-76
2021/04/05 09:19:00;;;;;;;2.08;1.90;;;;;;;2.47;100.00;100225.44;5015633;28;20056;-77
2021/04/05 09:22:38;;;;;;;1.27;1.27;;;;;;;2.57;100.00;100232.78;5017796;28;20390;-76
2021/04/05 09:26:08;;;;;;;1.08;1.08;;;;;;;2.62;100.00;100239.81;5034653;28;20052;-75
2021/04/05 09:29:27;;;;;;;3.30;1.13;;;;;;;2.60;100.00;100248.44;5027041;28;20045;-76
2021/04/05 09:32:55;;;;;;;1.20;1.20;;;;;;;2.70;100.00;100241.25;5036272;28;20056;-75
2021/04/05 09:36:20;;;;;;;1.30;1.00;;;;;;;2.82;100.00;100238.72;5036587;28;20048;-76
2021/04/05 09:39:45;;;;;;;0.95;0.95;;;;;;;2.94;100.00;100249.19;5036517;28;20052;-76
2021/04/05 09:43:25;;;;;;;0.52;0.52;;;;;;;3.12;100.00;100257.16;5036295;28;20377;-76
2021/04/05 09:46:48;;;;;;;0.63;0.63;;;;;;;3.15;100.00;100245.34;5035981;28;20493;-76
2021/04/05 09:49:51;;;;;;;;;;;;;;;3.30;100.00;100251.41;5035969;28;20497;-76
2021/04/05 09:53:26;;;;;;;3.72;0.82;;;;;;;3.47;96.13;100255.84;5036344;28;19913;-76
2021/04/05 09:56:33;;;;;;;1.08;1.08;;;;;;;3.62;93.00;100251.66;5035752;28;20056;-75
2021/04/05 09:59:44;;;;;;;0.75;0.75;;;;;;;3.70;86.99;100253.13;5036233;28;20044;-76
2021/04/05 10:02:52;;;;;;;0.88;0.88;;;;;;;3.72;83.00;100251.50;5035924;28;20493;-76
2021/04/05 10:06:02;;;;;;;0.70;0.70;;;;;;;3.83;78.45;100267.84;5036121;28;20052;-75
2021/04/05 10:09:07;;;;;;;1.23;1.23;;;;;;;3.74;69.11;100270.38;5036925;28;20496;-76
2021/04/05 10:12:11;;;;;;;1.67;0.93;;;;;;;3.70;65.42;100280.66;5036642;28;20049;-76
2021/04/05 10:15:17;;;;;;;12.07;1.10;;;;;;;3.70;63.10;100280.66;5035989;28;20048;-74
2021/04/05 10:18:21;;;;;;;0.55;0.55;;;;;;;3.74;61.69;100271.16;5035139;28;20060;-74
2021/04/05 10:21:26;;;;;;;0.47;0.47;;;;;;;3.71;60.44;100271.19;5035692;28;20492;-76
2021/04/05 10:24:31;;;;;;;0.65;0.65;;;;;;;3.78;58.81;100276.59;5034896;28;20052;-75
2021/04/05 10:27:36;;;;;;;0.75;0.75;;;;;;;3.79;58.21;100265.13;5035361;28;20044;-75
2021/04/05 10:30:41;;;;;;;1.92;0.95;;;;;;;3.93;57.54;100269.63;5035420;28;20492;-75
2021/04/05 10:33:49;;;;;;;0.70;0.70;;;;;;;4.11;58.43;100283.09;5035253;28;20390;-76
2021/04/05 10:37:08;;;;;;;1.25;1.25;;;;;;;4.24;59.18;100287.59;5035152;28;20052;-76
2021/04/05 10:40:18;;;;;;;0.93;0.65;;;;;;;4.22;57.21;100275.41;5031016;28;20061;-76
2021/04/05 10:43:25;;;;;;;1.05;1.02;;;;;;;4.25;55.84;100278.09;5033845;28;20072;-76
2021/04/05 10:46:32;;;;;;;9.45;2.35;;;;;;;4.24;52.88;100281.28;5034722;28;20045;-76
2021/04/05 10:49:39;;;;;;;3.20;1.00;;;;;;;4.24;54.69;100282.06;5034567;28;20048;-76
2021/04/05 10:52:47;;;;;;;1.63;1.23;;;;;;;4.35;54.47;100277.09;5034825;28;20060;-76
2021/04/05 10:56:00;;;;;;;0.90;0.90;;;;;;;4.51;55.04;100288.22;5035325;28;20057;-75
2021/04/05 10:59:21;;;;;;;0.90;0.82;;;;;;;4.56;53.22;100298.78;5034048;28;20044;-76
2021/04/05 11:02:36;;;;;;;1.65;0.73;;;;;;;4.55;50.65;100286.19;5034867;28;20382;-76
2021/04/05 11:05:42;;;;;;;1.05;1.05;;;;;;;4.69;52.39;100301.66;5034053;28;20048;-76
2021/04/05 11:08:50;;;;;;;0.40;0.40;;;;;;;4.65;50.16;100297.44;5027881;28;20561;-75
2021/04/05 11:11:55;;;;;;;0.47;0.47;;;;;;;4.48;48.29;100286.31;5032192;28;20052;-76
2021/04/05 11:15:02;;;;;;;0.77;0.77;;;;;;;4.57;49.14;100300.31;5032108;28;20056;-74
2021/04/05 11:18:08;;;;;;;0.70;0.70;;;;;;;4.62;49.38;100299.03;5034606;28;20505;-75
2021/04/05 11:21:13;;;;;;;0.60;0.60;;;;;;;4.71;48.12;100298.47;5034420;28;20048;-76
2021/04/05 11:24:30;;;;;;;0.68;0.68;;;;;;;4.80;47.85;100306.97;5034656;28;20497;-76
2021/04/05 11:27:49;;;;;;;0.82;0.82;;;;;;;4.80;47.74;100312.50;5034314;28;20048;-75
2021/04/05 11:31:03;;;;;;;0.80;0.80;;;;;;;4.84;47.48;100319.50;5034236;28;20052;-76
2021/04/05 11:34:07;;;;;;;2.05;1.02;;;;;;;4.72;46.22;100322.13;5034996;28;20343;-75
2021/04/05 11:37:14;;;;;;;0.68;0.68;;;;;;;4.72;46.68;100311.84;5034112;28;20049;-76
2021/04/05 11:40:25;;;;;;;0.50;0.50;;;;;;;4.87;48.69;100317.88;5033519;28;20076;-76
2021/04/05 11:47:51;;;;;;;1.35;1.25;;;;;;;4.92;44.67;100325.63;5033455;28;20056;-76
2021/04/05 11:50:55;;;;;;;0.40;0.40;;;;;;;4.90;44.14;100317.00;5034165;28;20048;-76
2021/04/05 11:54:00;;;;;;;0.77;0.77;;;;;;;4.89;44.68;100315.47;5033737;28;20048;-77
2021/04/05 11:57:09;;;;;;;0.43;0.43;;;;;;;4.89;45.26;100316.25;5034049;28;20056;-76
2021/04/05 12:00:17;;;;;;;1.30;0.60;;;;;;;5.03;45.44;100331.72;5033685;28;20044;-76
2021/04/05 12:03:43;;;;;;;0.68;0.68;;;;;;;5.06;42.99;100322.59;5034063;28;20489;-80
2021/04/05 12:07:04;;;;;;;0.95;0.95;;;;;;;5.01;42.30;100318.34;5033866;28;20048;-80
2021/04/05 12:10:18;;;;;;;0.40;0.40;;;;;;;4.93;41.48;100329.97;5033516;28;20056;-79
2021/04/05 12:13:46;;;;;;;4.43;1.05;;;;;;;4.97;42.70;100314.88;5032854;28;20056;-79
2021/04/05 12:16:52;;;;;;;0.47;0.47;;;;;;;5.12;43.86;100323.63;5033614;28;20052;-80
2021/04/05 12:19:57;;;;;;;0.40;0.40;;;;;;;5.11;42.02;100322.09;5033729;28;20049;-80
2021/04/05 12:23:07;;;;;;;0.60;0.50;;;;;;;5.13;43.24;100319.69;5032107;28;20048;-80
2021/04/05 12:26:11;;;;;;;0.80;0.80;;;;;;;5.11;42.42;100322.09;5032923;28;20072;-81
2021/04/05 12:29:14;;;;;;;0.30;0.30;;;;;;;5.07;42.82;100310.31;5033064;28;20485;-80
2021/04/05 12:32:20;;;;;;;0.70;0.70;;;;;;;5.15;42.33;100306.22;5032753;28;20048;-80
2021/04/05 12:35:25;;;;;;;0.40;0.40;;;;;;;5.30;43.84;100319.31;5031953;28;20040;-81
2021/04/05 12:38:32;;;;;;;0.65;0.65;;;;;;;5.44;42.82;100322.91;5033349;28;20044;-80
2021/04/05 12:41:45;;;;;;;0.57;0.57;;;;;;;5.48;41.25;100318.88;5032531;28;20052;-78
2021/04/05 12:44:56;;;;;;;0.52;0.52;;;;;;;5.38;40.40;100319.91;5034369;28;20377;-80
2021/04/05 12:48:02;;;;;;;4.63;0.80;;;;;;;5.42;41.16;100308.75;5033253;28;20056;-82
2021/04/05 12:51:08;;;;;;;0.52;0.52;;;;;;;5.23;41.29;100302.09;5032829;28;20049;-81
2021/04/05 12:54:13;;;;;;;0.57;0.57;;;;;;;5.43;43.79;100322.16;5032673;28;20509;-80
2021/04/05 12:57:27;;;;;;;0.40;0.40;;;;;;;5.80;45.49;100309.84;5032006;28;20060;-81
2021/04/05 13:00:31;;;;;;;0.43;0.43;;;;;;;5.98;44.41;100330.34;5032725;28;20052;-80
2021/04/05 13:03:38;;;;;;;0.55;0.55;;;;;;;5.76;44.58;100318.22;5032104;28;20060;-80
2021/04/05 13:06:45;;;;;;;0.50;0.50;;;;;;;5.77;44.81;100314.25;5032432;28;20052;-79
2021/04/05 13:10:00;;;;;;;0.50;0.50;;;;;;;5.81;45.19;100328.75;5032953;28;20064;-80
2021/04/05 13:13:10;;;;;;;0.70;0.70;;;;;;;5.95;45.71;100324.91;5032268;28;20120;-80
2021/04/05 13:16:19;;;;;;;0.77;0.77;;;;;;;6.18;45.24;100316.41;5031820;28;20048;-81
2021/04/05 13:19:28;;;;;;;0.40;0.40;;;;;;;6.25;44.81;100338.34;5031646;28;20109;-81
2021/04/05 13:27:20;;;;;;;0.50;0.50;;;;;;;5.76;44.67;100339.56;5032996;28;20060;-80
2021/04/05 13:30:30;;;;;;;0.50;0.50;;;;;;;5.72;45.04;100331.34;5032372;28;20048;-81
2021/04/05 13:33:41;;;;;;;0.77;0.77;;;;;;;5.76;45.44;100336.78;5032077;28;20048;-81
2021/04/05 13:36:46;;;;;;;0.75;0.75;;;;;;;5.74;44.83;100331.69;5031186;28;20056;-80
2021/04/05 13:39:51;;;;;;;0.47;0.35;;;;;;;5.84;44.77;100332.69;5031079;28;20489;-80
2021/04/05 13:42:57;;;;;;;0.60;0.60;;;;;;;6.07;45.32;100338.81;5032521;28;20052;-79
2021/04/05 13:46:07;;;;;;;0.43;0.43;;;;;;;6.44;45.47;100339.44;5031490;28;20374;-80
2021/04/05 13:49:22;;;;;;;1.05;0.90;;;;;;;6.11;46.51;100333.94;5032244;28;20104;-80
2021/04/05 13:52:28;;;;;;;0.50;0.50;;;;;;;6.03;47.21;100351.94;5032129;28;20052;-82
2021/04/05 13:55:38;;;;;;;0.40;0.40;;;;;;;5.98;46.63;100352.44;5032521;28;20052;-81
2021/04/05 13:58:52;;;;;;;0.70;0.70;;;;;;;5.58;46.92;100356.53;5031332;28;20076;-81
2021/04/05 14:01:58;;;;;;;10.38;1.63;;;;;;;5.84;47.29;100347.28;5031661;28;20053;-79
2021/04/05 14:05:04;;;;;;;0.90;0.70;;;;;;;6.40;48.47;100334.00;5035199;28;20068;-79
2021/04/05 14:08:18;;;;;;;1.65;0.70;;;;;;;6.75;49.03;100348.88;5015859;28;20493;-79
2021/04/05 14:11:28;;;;;;;0.52;0.52;;;;;;;6.67;47.21;100355.81;5015911;28;20072;-78
2021/04/05 14:14:37;;;;;;;0.40;0.40;;;;;;;6.34;48.52;100357.88;5015899;28;20056;-78
2021/04/05 14:18:00;;;;;;;0.47;0.47;;;;;;;6.79;50.75;100355.09;5015955;28;20057;-79
2021/04/05 14:21:04;;;;;;;0.70;0.70;;;;;;;6.94;50.46;100345.16;5015456;28;20048;-81
2021/04/05 14:24:19;;;;;;;0.50;0.50;;;;;;;6.98;50.93;100345.84;5014839;28;20378;-82
2021/04/05 14:27:28;;;;;;;0.50;0.38;;;;;;;7.05;50.17;100351.19;5014811;28;20064;-80
2021/04/05 14:30:41;;;;;;;0.30;0.30;;;;;;;6.91;50.25;100351.56;5015939;28;20117;-81
2021/04/05 14:33:54;;;;;;;0.30;0.30;;;;;;;7.21;50.54;100342.78;5014932;28;20072;-80
2021/04/05 14:37:06;;;;;;;3.20;0.40;;;;;;;7.18;50.35;100354.75;5016945;28;20045;-81
2021/04/05 14:40:15;;;;;;;0.50;0.50;;;;;;;7.08;50.54;100347.50;5015223;28;20493;-81
2021/04/05 14:43:37;;;;;;;0.60;0.30;;;;;;;7.22;50.28;100349.09;5017134;28;20382;-83
2021/04/05 14:46:50;;;;;;;0.28;0.28;;;;;;;7.28;50.93;100352.88;5015424;28;20061;-82
2021/04/05 14:49:58;;;;;;;0.20;0.20;;;;;;;7.16;50.56;100346.13;5016120;28;20061;-82
2021/04/05 14:53:08;;;;;;;1.10;0.30;;;;;;;6.59;51.44;100358.00;5032496;28;20134;-83
2021/04/05 14:56:15;;;;;;;0.85;0.47;;;;;;;5.99;51.93;100359.53;5036299;28;20052;-83
2021/04/05 14:59:24;;;;;;;0.85;0.82;;;;;;;5.40;52.00;100358.91;5035665;28;20064;-82
2021/04/05 15:02:35;;;;;;;13.90;2.40;;;;;;;5.32;53.27;100352.00;5036122;28;20060;-83
2021/04/05 15:05:46;;;;;;;6.60;1.60;;;;;;;5.34;57.52;100363.41;5036894;28;20060;-81
2021/04/05 15:08:55;;;;;;;2.20;1.05;;;;;;;5.44;57.13;100358.81;5015997;28;20056;-82
2021/04/05 15:12:06;;;;;;;0.45;0.45;;;;;;;5.45;56.42;100350.13;5014392;28;20065;-82
2021/04/05 15:15:17;;;;;;;1.17;1.08;;;;;;;5.11;56.90;100347.69;5013901;28;20057;-81
2021/04/05 15:18:22;;;;;;;3.22;1.10;;;;;;;4.97;59.40;100361.81;5014855;28;20053;-82
2021/04/05 15:21:30;;;;;;;0.60;0.60;;;;;;;4.99;58.13;100362.16;5013778;28;20048;-81
2021/04/05 15:24:36;;;;;;;0.40;0.40;;;;;;;5.06;58.62;100355.72;5014511;28;20041;-81
2021/04/05 15:27:42;;;;;;;6.63;1.17;;;;;;;5.17;59.63;100353.50;5014990;28;20105;-81
2021/04/05 15:30:49;;;;;;;0.70;0.70;;;;;;;5.15;57.08;100355.91;5014943;28;20048;-80
2021/04/05 15:33:54;;;;;;;0.50;0.50;;;;;;;5.11;58.29;100355.22;5016989;28;20497;-79
2021/04/05 15:37:06;;;;;;;0.75;0.75;;;;;;;5.05;59.24;100356.91;5014742;28;20073;-79
2021/04/05 15:40:09;;;;;;;1.25;0.60;;;;;;;4.94;59.94;100346.09;5014657;28;20053;-80
2021/04/05 15:43:27;;;;;;;0.70;0.70;;;;;;;4.79;60.14;100341.28;5029393;28;20041;-81
2021/04/05 15:46:51;;;;;;;0.70;0.70;;;;;;;4.74;62.00;100352.81;5034257;28;20382;-80
2021/04/05 15:50:04;;;;;;;2.75;1.35;;;;;;;4.82;63.58;100343.97;5034439;28;20056;-79
2021/04/05 15:53:13;;;;;;;0.75;0.75;;;;;;;4.83;65.21;100353.03;5033855;28;20057;-80
2021/04/05 15:56:27;;;;;;;0.65;0.65;;;;;;;4.74;64.27;100358.34;5033706;28;20064;-80